This is the latest recevied weather packets stored in our database for station/object NK7I. If no packets are shown the sender has not sent any weather packets the latest 10 day(s).
| Time | Temp. | Humidity | Pressure | Rain* | Wind** | Luminosity | Snow |
|---|---|---|---|---|---|---|---|
| 1777909882 | 13.89° C | 62% | 1010.7 hPa | 0 mm | - | 547 W/m² | - |
| 1777909582 | 13.89° C | 66% | 1010.6 hPa | 0 mm | - | 482 W/m² | - |
| 1777909283 | 13.33° C | 63% | 1010.7 hPa | 0 mm | - | 533 W/m² | - |
| 1777908982 | 13.33° C | 63% | 1010.7 hPa | 0 mm | - | 541 W/m² | - |
| 1777908682 | 12.78° C | 65% | 1010.8 hPa | 0 mm | - | 540 W/m² | - |
| 1777908383 | 12.78° C | 65% | 1010.8 hPa | 0 mm | - | 545 W/m² | - |
| 1777908082 | 12.22° C | 65% | 1010.8 hPa | 0 mm | - | 533 W/m² | - |
| 1777907782 | 12.22° C | 65% | 1010.8 hPa | 0 mm | - | 545 W/m² | - |
| 1777907482 | 12.22° C | 67% | 1010.8 hPa | 0 mm | - | 501 W/m² | - |
| 1777907182 | 11.67° C | 66% | 1010.8 hPa | 0 mm | - | 438 W/m² | - |
| 1777906882 | 11.67° C | 67% | 1010.8 hPa | 0 mm | - | 396 W/m² | - |
| 1777906583 | 11.11° C | 67% | 1010.9 hPa | 0 mm | - | 415 W/m² | - |
| 1777906287 | 11.11° C | 70% | 1010.8 hPa | 0 mm | - | 360 W/m² | - |
| 1777906282 | 11.11° C | 71% | 1010.8 hPa | 0 mm | - | 360 W/m² | - |
| 1777905982 | 10.56° C | 71% | 1010.8 hPa | 0 mm | - | 348 W/m² | - |
| 1777905682 | 10.56° C | 71% | 1010.8 hPa | 0 mm | - | 211 W/m² | - |
| 1777905382 | 10.56° C | 72% | 1010.7 hPa | 0 mm | - | 167 W/m² | - |
| 1777905082 | 10.56° C | 72% | 1010.7 hPa | 0 mm | - | 149 W/m² | - |
| 1777904782 | 10° C | 74% | 1010.6 hPa | 0 mm | - | 142 W/m² | - |
| 1777904483 | 10° C | 75% | 1010.6 hPa | 0 mm | - | 149 W/m² | - |
| 1777904182 | 10° C | 75% | 1010.6 hPa | 0 mm | - | 206 W/m² | - |
| 1777903882 | 9.44° C | 75% | 1010.5 hPa | 0 mm | - | 121 W/m² | - |
| 1777903583 | 8.89° C | 76% | 1010.5 hPa | 0 mm | - | 97 W/m² | - |
| 1777903282 | 8.89° C | 76% | 1010.5 hPa | 0 mm | - | 86 W/m² | - |
| 1777902982 | 8.33° C | 78% | 1010.3 hPa | 0 mm | - | 81 W/m² | - |
* Rain latest hour (hover to see other rain measurements)
** Current wind speed in m/s (hover to see current wind gust speed)